Time;durP1;ratioP1;P1;durP2;ratioP2;P2;SDS_P1;SDS_P2;PMS_P1;PMS_P2;Temp;Humidity;BMP_temperature;BMP_pressure;BME280_temperature;BME280_humidity;BME280_pressure;Samples;Min_cycle;Max_cycle;Signal;HPM_P1;HPM_P2
2021/09/24 00:00:33;50348.00;0.17;87.79;0.00;0.00;0.62;;;;;18.00;1.00;;;;;;2272820;61;1231;-85
2021/09/24 00:03:00;88696.00;0.30;154.06;0.00;0.00;0.62;;;;;18.40;1.00;;;;;;2272422;61;1823;-85
2021/09/24 00:05:28;57698.00;0.19;100.50;0.00;0.00;0.62;;;;;18.90;1.00;;;;;;2272497;61;1092;-86
2021/09/24 00:07:55;160501.00;0.54;277.90;0.00;0.00;0.62;;;;;19.10;1.00;;;;;;2272355;61;1184;-86
2021/09/24 00:10:22;209306.00;0.70;361.94;0.00;0.00;0.62;;;;;19.10;1.00;;;;;;2272530;61;1651;-85
2021/09/24 00:12:50;18617.00;0.06;32.88;0.00;0.00;0.62;;;;;19.20;1.00;;;;;;2273163;61;1943;-85
2021/09/24 00:15:18;15285.00;0.05;27.10;0.00;0.00;0.62;;;;;19.20;1.00;;;;;;2273056;61;1139;-85
2021/09/24 00:17:46;88138.00;0.29;153.09;0.00;0.00;0.62;;;;;19.30;1.00;;;;;;2273014;61;1171;-85
2021/09/24 00:20:14;42672.00;0.14;74.51;0.00;0.00;0.62;;;;;19.30;1.00;;;;;;2273202;61;1342;-85
2021/09/24 00:22:42;114083.00;0.38;197.87;0.00;0.00;0.62;;;;;18.70;1.00;;;;;;2274631;61;1404;-88
2021/09/24 00:25:10;163781.00;0.55;283.55;0.00;0.00;0.62;;;;;18.30;1.00;;;;;;2278228;61;1243;-87
2021/09/24 00:27:37;133418.00;0.44;231.22;0.00;0.00;0.62;;;;;18.00;1.00;;;;;;2280019;60;1235;-87
2021/09/24 00:30:07;109486.00;0.36;189.94;0.00;0.00;0.62;;;;;17.90;1.00;;;;;;2280122;60;1216;-86
2021/09/24 00:32:35;226136.00;0.75;390.90;0.00;0.00;0.62;;;;;17.80;1.00;;;;;;2280166;60;2016;-88
2021/09/24 00:35:02;135158.00;0.45;234.22;0.00;0.00;0.62;;;;;18.10;1.00;;;;;;2277345;61;1207;-88
2021/09/24 00:37:28;122392.00;0.41;212.21;0.00;0.00;0.62;;;;;18.20;1.00;;;;;;2276496;61;1247;-88
2021/09/24 00:40:00;69898.00;0.23;121.58;0.00;0.00;0.62;;;;;18.30;1.00;;;;;;2269342;61;1242;-88
2021/09/24 00:42:28;128359.00;0.43;222.50;0.00;0.00;0.62;;;;;18.50;1.00;;;;;;2277144;61;1331;-88
2021/09/24 00:44:55;245169.00;0.82;423.64;0.00;0.00;0.62;;;;;18.70;1.00;;;;;;2276719;61;1116;-88
2021/09/24 00:47:24;118751.00;0.40;205.93;0.00;0.00;0.62;;;;;18.80;1.00;;;;;;2276860;61;1128;-88
2021/09/24 00:49:51;105140.00;0.35;182.44;0.00;0.00;0.62;;;;;18.90;1.00;;;;;;2277149;61;1128;-88
2021/09/24 00:52:19;37575.00;0.13;65.69;0.00;0.00;0.62;;;;;18.90;1.00;;;;;;2277586;61;2001;-88
2021/09/24 00:54:48;37096.00;0.12;64.86;0.00;0.00;0.62;;;;;19.10;1.00;;;;;;2277563;61;1616;-87
2021/09/24 00:57:16;231559.00;0.77;400.23;0.00;0.00;0.62;;;;;19.30;1.00;;;;;;2278224;61;1656;-87
2021/09/24 00:59:43;60258.00;0.20;104.92;0.00;0.00;0.62;;;;;19.40;1.00;;;;;;2278119;61;1136;-86
2021/09/24 01:02:11;51131.00;0.17;89.14;0.00;0.00;0.62;;;;;19.30;1.00;;;;;;2277784;61;1497;-86
2021/09/24 01:04:39;57811.00;0.19;100.69;0.00;0.00;0.62;;;;;19.30;1.00;;;;;;2277927;61;1143;-87
2021/09/24 01:07:07;100649.00;0.34;174.69;0.00;0.00;0.62;;;;;19.20;1.00;;;;;;2277768;61;2083;-88
2021/09/24 01:09:35;53063.00;0.18;92.48;0.00;0.00;0.62;;;;;19.00;1.00;;;;;;2276940;61;1079;-88
2021/09/24 01:12:02;115535.00;0.39;200.38;0.00;0.00;0.62;;;;;18.80;1.00;;;;;;2276673;61;2002;-88
2021/09/24 01:14:30;49256.00;0.16;85.90;0.00;0.00;0.62;;;;;19.00;1.00;;;;;;2276992;61;1168;-88
2021/09/24 01:16:57;94845.00;0.32;164.67;0.00;0.00;0.62;;;;;19.10;1.00;;;;;;2276883;61;1155;-88
2021/09/24 01:19:25;61114.00;0.20;106.40;0.00;0.00;0.62;;;;;19.30;1.00;;;;;;2276689;61;1123;-88
2021/09/24 01:21:53;72933.00;0.24;126.83;0.00;0.00;0.62;;;;;19.10;1.00;;;;;;2277060;61;1305;-87
2021/09/24 01:24:21;475781.00;1.59;820.14;86521.00;0.29;150.30;;;;;18.80;1.00;;;;;;2277007;61;1155;-88
2021/09/24 01:26:50;667812.00;2.23;1151.46;56050.00;0.19;97.65;;;;;18.70;1.00;;;;;;2276738;61;2159;-87
2021/09/24 01:29:23;608720.00;2.03;1049.28;75546.00;0.25;131.34;;;;;18.60;1.00;;;;;;2276778;61;1758;-88
2021/09/24 01:31:50;364870.00;1.22;629.42;6261.00;0.02;11.47;;;;;18.80;1.00;;;;;;2280674;60;2018;-85
2021/09/24 01:34:19;265394.00;0.88;458.42;11858.00;0.04;21.17;;;;;19.00;1.00;;;;;;2278316;61;1212;-87
2021/09/24 01:36:46;495672.00;1.65;854.37;0.00;0.00;0.62;;;;;19.00;1.00;;;;;;2277466;61;1091;-87
2021/09/24 01:39:15;644180.00;2.15;1110.57;0.00;0.00;0.62;;;;;18.60;1.00;;;;;;2277133;61;1128;-88
2021/09/24 01:41:44;477895.00;1.59;823.78;30393.00;0.10;53.26;;;;;18.50;1.00;;;;;;2277253;61;1376;-88
2021/09/24 01:44:12;379682.00;1.27;654.88;20390.00;0.07;35.95;;;;;18.60;1.00;;;;;;2277295;61;1112;-87
2021/09/24 01:46:40;807524.00;2.69;1394.25;128542.00;0.43;222.82;;;;;18.80;1.00;;;;;;2277112;61;1126;-88
2021/09/24 01:49:07;1280310.00;4.27;2236.12;119557.00;0.40;207.32;;;;;18.90;1.00;;;;;;2277130;61;1076;-87
2021/09/24 01:51:35;948891.00;3.16;1642.16;90027.00;0.30;156.35;;;;;17.80;1.00;;;;;;2277034;61;1915;-87
2021/09/24 01:54:03;1246074.00;4.15;2173.75;159988.00;0.53;277.02;;;;;17.70;1.00;;;;;;2277148;61;1080;-87
2021/09/24 01:56:32;1143251.00;3.81;1987.95;131186.00;0.44;227.37;;;;;17.70;1.00;;;;;;2277316;61;1145;-87
2021/09/24 01:58:59;734727.00;2.45;1267.51;88470.00;0.29;153.67;;;;;18.00;1.00;;;;;;2276849;61;1045;-88
2021/09/24 02:01:28;738886.00;2.46;1274.74;18916.00;0.06;33.39;;;;;18.20;1.00;;;;;;2276769;61;1321;-87
2021/09/24 02:03:55;1115747.00;3.72;1938.61;39509.00;0.13;69.04;;;;;18.40;1.00;;;;;;2276771;61;1130;-87
2021/09/24 02:06:22;1019441.00;3.40;1766.93;154530.00;0.52;267.61;;;;;18.70;1.00;;;;;;2276913;61;1159;-87
2021/09/24 02:08:49;579655.00;1.93;999.10;8912.00;0.03;16.06;;;;;18.30;1.00;;;;;;2277757;61;1119;-87
2021/09/24 02:11:16;665815.00;2.22;1148.01;61169.00;0.20;106.50;;;;;18.40;1.00;;;;;;2280504;60;1931;-86
2021/09/24 02:13:46;903412.00;3.01;1562.11;37350.00;0.12;65.30;;;;;18.50;1.00;;;;;;2277818;61;1134;-87
2021/09/24 02:16:13;774252.00;2.58;1336.26;43954.00;0.15;76.73;;;;;18.50;1.00;;;;;;2277346;61;1133;-87
2021/09/24 02:18:43;1036087.00;3.45;1796.49;20927.00;0.07;36.88;;;;;18.50;1.00;;;;;;2276759;61;1122;-87
2021/09/24 02:21:10;997929.00;3.33;1728.80;79164.00;0.26;137.59;;;;;18.10;1.00;;;;;;2277232;61;1199;-87
2021/09/24 02:23:38;1254593.00;4.18;2189.24;75700.00;0.25;131.61;;;;;18.20;1.00;;;;;;2276953;61;1567;-87
2021/09/24 02:26:05;1088140.00;3.63;1889.23;87539.00;0.29;152.06;;;;;18.30;1.00;;;;;;2276943;61;1584;-87
2021/09/24 02:28:33;853539.00;2.85;1474.66;189244.00;0.63;327.41;;;;;18.20;1.00;;;;;;2277166;61;1159;-87
2021/09/24 02:31:09;1048889.00;3.50;1819.26;129323.00;0.43;224.16;;;;;18.30;1.00;;;;;;2277039;61;1073;-87
2021/09/24 02:33:36;675359.00;2.25;1164.53;0.00;0.00;0.62;;;;;18.50;1.00;;;;;;2276766;61;1982;-88
2021/09/24 02:36:04;896143.00;2.99;1549.35;40723.00;0.14;71.14;;;;;18.60;1.00;;;;;;2277241;61;1110;-88
2021/09/24 02:38:31;743159.00;2.48;1282.17;46382.00;0.15;80.93;;;;;18.30;1.00;;;;;;2277262;61;1167;-87
2021/09/24 02:40:58;745081.00;2.48;1285.51;20741.00;0.07;36.55;;;;;17.80;1.00;;;;;;2277308;61;1545;-88
2021/09/24 02:43:25;1025429.00;3.42;1777.56;113051.00;0.38;196.09;;;;;17.90;1.00;;;;;;2278326;61;1272;-87
2021/09/24 02:45:52;1057773.00;3.53;1835.07;100207.00;0.33;173.93;;;;;17.90;1.00;;;;;;2277456;61;1202;-87
2021/09/24 02:48:23;1044285.00;3.48;1811.07;93570.00;0.31;162.47;;;;;17.70;1.00;;;;;;2276914;61;1193;-87
2021/09/24 02:50:52;727121.00;2.42;1254.30;146458.00;0.49;253.70;;;;;17.80;1.00;;;;;;2277016;61;1114;-87
2021/09/24 02:53:21;949569.00;3.17;1643.35;138382.00;0.46;239.78;;;;;18.00;1.00;;;;;;2276593;61;1951;-87
2021/09/24 02:55:49;690345.00;2.30;1190.50;39782.00;0.13;69.51;;;;;18.10;1.00;;;;;;2276356;61;1138;-87
2021/09/24 02:58:16;916459.00;3.05;1585.05;57427.00;0.19;100.03;;;;;18.20;1.00;;;;;;2276606;61;1115;-87
2021/09/24 03:00:44;1144659.00;3.82;1990.48;141429.00;0.47;245.03;;;;;18.30;1.00;;;;;;2276441;61;1155;-88
2021/09/24 03:03:11;1305408.00;4.35;2282.01;149059.00;0.50;258.19;;;;;18.20;1.00;;;;;;2276783;61;1531;-87
2021/09/24 03:05:41;1148091.00;3.83;1996.64;193991.00;0.65;335.58;;;;;18.10;1.00;;;;;;2276958;61;1069;-88
2021/09/24 03:08:08;1121690.00;3.74;1949.26;158583.00;0.53;274.60;;;;;18.00;1.00;;;;;;2276885;61;1112;-87
2021/09/24 03:10:35;940281.00;3.13;1626.98;102609.00;0.34;178.08;;;;;18.10;1.00;;;;;;2277207;61;1138;-87
2021/09/24 03:13:03;874516.00;2.92;1511.40;140783.00;0.47;243.92;;;;;18.20;1.00;;;;;;2276685;61;1927;-87
2021/09/24 03:15:30;819235.00;2.73;1414.69;78179.00;0.26;135.89;;;;;18.40;1.00;;;;;;2276665;61;1082;-88
2021/09/24 03:17:57;1050260.00;3.50;1821.70;129639.00;0.43;224.71;;;;;18.00;1.00;;;;;;2276581;61;1052;-87
2021/09/24 03:20:24;915191.00;3.05;1582.82;102033.00;0.34;177.08;;;;;17.90;1.00;;;;;;2276631;61;1167;-87
2021/09/24 03:22:54;1024775.00;3.42;1776.40;116420.00;0.39;201.91;;;;;17.90;1.00;;;;;;2276213;61;1363;-88
2021/09/24 03:25:21;925357.00;3.08;1600.70;134309.00;0.45;232.76;;;;;18.20;1.00;;;;;;2276515;61;1088;-88
2021/09/24 03:27:48;390396.00;1.30;673.30;77721.00;0.26;135.10;;;;;18.50;1.00;;;;;;2276506;61;1261;-87
2021/09/24 03:30:17;438874.00;1.46;756.65;97119.00;0.32;168.60;;;;;18.30;1.00;;;;;;2276418;61;1149;-87
2021/09/24 03:32:46;948768.00;3.16;1641.94;148922.00;0.50;257.95;;;;;17.70;1.00;;;;;;2276418;61;1945;-87
2021/09/24 03:35:15;892045.00;2.97;1542.15;94366.00;0.31;163.85;;;;;17.40;1.00;;;;;;2276751;61;1121;-88
2021/09/24 03:37:44;961635.00;3.21;1664.64;184379.00;0.61;319.03;;;;;16.90;1.00;;;;;;2277443;61;1037;-88
2021/09/24 03:40:14;879892.00;2.93;1520.83;89303.00;0.30;155.10;;;;;17.10;1.00;;;;;;2277453;61;1146;-88
2021/09/24 03:42:41;926547.00;3.09;1602.79;100386.00;0.33;174.24;;;;;17.60;1.00;;;;;;2277493;61;1281;-88
2021/09/24 03:45:09;942049.00;3.14;1630.09;119173.00;0.40;206.66;;;;;18.00;1.00;;;;;;2277509;61;1201;-88
2021/09/24 03:47:37;845210.00;2.82;1460.09;213496.00;0.71;369.15;;;;;18.30;1.00;;;;;;2278170;61;1081;-88
2021/09/24 03:50:05;842251.00;2.81;1454.91;135001.00;0.45;233.95;;;;;18.50;1.00;;;;;;2277947;61;1123;-88
2021/09/24 03:52:32;960014.00;3.20;1661.78;116771.00;0.39;202.51;;;;;18.40;1.00;;;;;;2277633;61;2025;-88
2021/09/24 03:54:59;921787.00;3.07;1594.42;11057.00;0.04;19.78;;;;;18.20;1.00;;;;;;2277880;61;1090;-88
2021/09/24 03:57:29;1256394.00;4.19;2192.52;126822.00;0.42;219.85;;;;;18.30;1.00;;;;;;2278071;61;1760;-88
2021/09/24 03:59:56;767341.00;2.56;1324.22;14494.00;0.05;25.73;;;;;18.50;1.00;;;;;;2278207;61;1593;-88
2021/09/24 04:02:28;725061.00;2.42;1250.72;78532.00;0.26;136.50;;;;;18.50;1.00;;;;;;2278073;61;1491;-88
2021/09/24 04:04:56;683159.00;2.28;1178.05;13536.00;0.05;24.07;;;;;18.30;1.00;;;;;;2278115;61;1117;-87
2021/09/24 04:07:23;906988.00;3.02;1568.40;35738.00;0.12;62.51;;;;;18.10;1.00;;;;;;2278127;61;1760;-87
2021/09/24 04:09:52;558389.00;1.86;962.42;19295.00;0.06;34.05;;;;;18.40;1.00;;;;;;2278982;61;1225;-88
2021/09/24 04:12:19;944032.00;3.15;1633.59;60992.00;0.20;106.19;;;;;18.40;1.00;;;;;;2278732;61;1943;-88
2021/09/24 04:14:47;878184.00;2.93;1517.84;3314.00;0.01;6.36;;;;;18.60;1.00;;;;;;2278646;61;1164;-88
2021/09/24 04:17:14;809581.00;2.70;1397.84;0.00;0.00;0.62;;;;;18.80;1.00;;;;;;2278502;61;1142;-88
2021/09/24 04:19:44;462430.00;1.54;797.17;44357.00;0.15;77.43;;;;;18.60;1.00;;;;;;2278534;61;1155;-88
2021/09/24 04:22:12;926433.00;3.09;1602.59;132430.00;0.44;229.52;;;;;18.00;1.00;;;;;;2278430;61;1489;-88
2021/09/24 04:24:39;830712.00;2.77;1434.74;59878.00;0.20;104.27;;;;;17.80;1.00;;;;;;2278447;61;1183;-88
2021/09/24 04:27:06;703028.00;2.34;1212.49;98047.00;0.33;170.20;;;;;17.90;1.00;;;;;;2278449;61;1099;-88
2021/09/24 04:29:33;833946.00;2.78;1440.39;88509.00;0.30;153.73;;;;;17.60;1.00;;;;;;2278586;61;1122;-88
2021/09/24 04:32:02;752820.00;2.51;1298.96;47897.00;0.16;83.55;;;;;17.60;1.00;;;;;;2278477;61;2020;-88
2021/09/24 04:34:29;745146.00;2.48;1285.62;0.00;0.00;0.62;;;;;17.70;1.00;;;;;;2278866;61;1593;-88
2021/09/24 04:36:56;1077049.00;3.59;1869.43;76736.00;0.26;133.40;;;;;17.90;1.00;;;;;;2278825;61;1100;-88
2021/09/24 04:39:23;738891.00;2.46;1274.75;43149.00;0.14;75.34;;;;;18.10;1.00;;;;;;2279003;61;1140;-88
2021/09/24 04:41:50;565095.00;1.88;973.99;9869.00;0.03;17.72;;;;;18.20;1.00;;;;;;2279009;61;1385;-88
2021/09/24 04:44:17;780330.00;2.60;1346.84;6487.00;0.02;11.86;;;;;18.20;1.00;;;;;;2279166;61;1049;-88
2021/09/24 04:46:46;702069.00;2.34;1210.83;0.00;0.00;0.62;;;;;18.00;1.00;;;;;;2279344;61;1082;-88
2021/09/24 04:49:15;714368.00;2.38;1232.16;19673.00;0.07;34.70;;;;;17.60;1.00;;;;;;2279520;61;1729;-88
2021/09/24 04:51:44;661900.00;2.21;1141.23;54843.00;0.18;95.56;;;;;17.10;1.00;;;;;;2278787;61;1362;-88
2021/09/24 04:54:11;570545.00;1.90;983.39;67251.00;0.22;117.01;;;;;16.90;1.00;;;;;;2278921;61;2014;-88
2021/09/24 04:56:38;433279.00;1.44;747.02;39621.00;0.13;69.23;;;;;16.80;1.00;;;;;;2278761;61;1340;-88
2021/09/24 04:59:12;421680.00;1.41;727.08;0.00;0.00;0.62;;;;;17.00;1.00;;;;;;2279112;61;1131;-87
2021/09/24 05:01:40;1042425.00;3.47;1807.76;68436.00;0.23;119.06;;;;;17.40;1.00;;;;;;2278817;61;1444;-88
2021/09/24 05:04:07;1121384.00;3.74;1948.71;41483.00;0.14;72.45;;;;;17.20;1.00;;;;;;2277994;61;1689;-88
2021/09/24 05:06:36;1096027.00;3.65;1903.32;29234.00;0.10;51.26;;;;;17.20;1.00;;;;;;2277625;61;1163;-88
2021/09/24 05:09:03;781290.00;2.60;1348.51;42157.00;0.14;73.62;;;;;17.50;1.00;;;;;;2277916;61;1636;-88
2021/09/24 05:11:30;1096984.00;3.66;1905.03;14252.00;0.05;25.32;;;;;17.40;1.00;;;;;;2277715;61;1636;-87
2021/09/24 05:13:58;909141.00;3.03;1572.18;18420.00;0.06;32.53;;;;;17.50;1.00;;;;;;2279003;61;1998;-88
2021/09/24 05:16:28;761188.00;2.54;1313.52;28075.00;0.09;49.25;;;;;17.60;1.00;;;;;;2278494;61;1133;-88
2021/09/24 05:18:55;805598.00;2.69;1390.89;143761.00;0.48;249.05;;;;;17.80;1.00;;;;;;2278586;61;1038;-88
2021/09/24 05:21:23;774184.00;2.58;1336.14;0.00;0.00;0.62;;;;;18.00;1.00;;;;;;2279878;61;1361;-88
2021/09/24 05:23:56;1208394.00;4.03;2105.40;144133.00;0.48;249.70;;;;;18.20;1.00;;;;;;2280411;60;1142;-88
2021/09/24 05:26:25;842981.00;2.81;1456.19;79364.00;0.26;137.94;;;;;18.40;1.00;;;;;;2280262;61;1089;-87
2021/09/24 05:28:52;766760.00;2.56;1323.21;109283.00;0.36;189.59;;;;;18.50;1.00;;;;;;2279670;61;1645;-88
2021/09/24 05:31:19;577266.00;1.92;994.98;74207.00;0.25;129.03;;;;;18.70;1.00;;;;;;2279837;61;1271;-86
2021/09/24 05:33:48;595971.00;1.99;1027.26;37560.00;0.13;65.67;;;;;18.90;1.00;;;;;;2280445;60;2001;-87
2021/09/24 05:36:15;1046788.00;3.49;1815.52;92382.00;0.31;160.42;;;;;18.70;1.00;;;;;;2280040;61;1133;-88
2021/09/24 05:38:42;773488.00;2.58;1334.93;99411.00;0.33;172.56;;;;;18.50;1.00;;;;;;2280307;60;1340;-86
2021/09/24 05:41:11;990402.00;3.30;1715.48;104817.00;0.35;181.89;;;;;18.00;1.00;;;;;;2280508;60;1230;-87
2021/09/24 05:43:39;551285.00;1.84;950.17;0.00;0.00;0.62;;;;;18.00;1.00;;;;;;2279885;61;1262;-87
2021/09/24 05:46:06;932118.00;3.11;1612.60;99737.00;0.33;173.12;;;;;18.10;1.00;;;;;;2280325;60;1133;-86
2021/09/24 05:48:33;635352.00;2.12;1095.30;17016.00;0.06;30.10;;;;;18.70;1.00;;;;;;2279996;60;1089;-88
2021/09/24 05:51:03;644291.00;2.15;1110.76;14067.00;0.05;24.99;;;;;19.30;1.00;;;;;;2279527;61;1127;-88
2021/09/24 05:53:30;507791.00;1.69;875.24;13833.00;0.05;24.59;;;;;20.10;1.00;;;;;;2279832;61;1943;-88
2021/09/24 05:55:57;717396.00;2.39;1237.42;29579.00;0.10;51.85;;;;;20.50;1.00;;;;;;2279336;61;1119;-88
2021/09/24 05:58:25;950685.00;3.17;1645.32;84160.00;0.28;146.22;;;;;21.20;1.00;;;;;;2279388;61;1123;-88
2021/09/24 06:00:52;1175257.00;3.92;2045.55;123620.00;0.41;214.33;;;;;21.80;1.00;;;;;;2279156;61;1140;-88
2021/09/24 06:03:19;722794.00;2.41;1246.79;125444.00;0.42;217.47;;;;;22.20;1.00;;;;;;2277999;61;1297;-88
2021/09/24 06:05:46;447379.00;1.49;771.27;25936.00;0.09;45.55;;;;;22.80;1.00;;;;;;2278830;61;1179;-88
2021/09/24 06:08:13;512812.00;1.71;883.88;63629.00;0.21;110.75;;;;;22.70;1.00;;;;;;2279469;61;1077;-87
2021/09/24 06:10:40;828703.00;2.76;1431.23;68488.00;0.23;119.15;;;;;22.90;1.00;;;;;;2279370;61;1150;-87
2021/09/24 06:13:07;1031144.00;3.44;1787.71;117626.00;0.39;203.99;;;;;23.20;1.00;;;;;;2279376;61;2004;-88
2021/09/24 06:15:37;1301154.00;4.34;2274.22;62026.00;0.21;107.98;;;;;23.20;1.00;;;;;;2279127;61;1182;-88
2021/09/24 06:18:04;1330220.00;4.43;2327.52;142673.00;0.48;247.18;;;;;23.20;1.00;;;;;;2279251;61;1116;-88
2021/09/24 06:20:32;1645089.00;5.48;2919.22;138673.00;0.46;240.28;;;;;23.60;1.00;;;;;;2278933;61;1137;-88
2021/09/24 06:22:59;1498205.00;4.99;2639.74;167076.00;0.56;289.23;;;;;23.90;1.00;;;;;;2279284;61;1364;-88
2021/09/24 06:25:26;1240140.00;4.13;2162.96;203611.00;0.68;352.14;;;;;24.00;1.00;;;;;;2279849;61;1121;-88
2021/09/24 06:27:53;945474.00;3.15;1636.13;165194.00;0.55;285.99;;;;;24.10;1.00;;;;;;2279855;61;1118;-88
2021/09/24 06:30:22;748221.00;2.49;1290.96;106157.00;0.35;184.20;;;;;24.00;1.00;;;;;;2278452;61;1166;-88
2021/09/24 06:32:51;221133.00;0.74;382.29;73917.00;0.25;128.53;;;;;24.50;1.00;;;;;;2278951;61;1947;-88
2021/09/24 06:35:19;336609.00;1.12;580.85;80934.00;0.27;140.65;;;;;23.50;1.00;;;;;;2277481;61;1604;-87
2021/09/24 06:37:46;244824.00;0.82;423.05;80348.00;0.27;139.64;;;;;23.10;1.00;;;;;;2276328;61;1079;-87
2021/09/24 06:40:14;261429.00;0.87;451.61;57916.00;0.19;100.87;;;;;23.30;1.00;;;;;;2277769;61;1205;-88
2021/09/24 06:42:42;252263.00;0.84;435.84;65370.00;0.22;113.76;;;;;23.50;1.00;;;;;;2278794;61;1264;-88
2021/09/24 06:45:13;228997.00;0.76;395.82;75313.00;0.25;130.94;;;;;23.90;1.00;;;;;;2278514;61;1091;-88
2021/09/24 06:47:41;250319.00;0.83;432.50;69680.00;0.23;121.21;;;;;24.10;1.00;;;;;;2279012;61;1787;-88
2021/09/24 06:50:11;212245.00;0.71;367.00;72251.00;0.24;125.65;;;;;24.30;1.00;;;;;;2279316;61;1198;-84
2021/09/24 06:52:38;207425.00;0.69;358.70;76098.00;0.25;132.30;;;;;24.70;1.00;;;;;;2279548;61;1379;-84
2021/09/24 06:55:07;207330.00;0.69;358.54;68800.00;0.23;119.69;;;;;25.40;1.00;;;;;;2278573;61;2016;-84
2021/09/24 06:57:35;243530.00;0.81;420.82;76467.00;0.25;132.93;;;;;26.10;1.00;;;;;;2279440;61;1045;-83
2021/09/24 07:00:04;207784.00;0.69;359.32;91279.00;0.30;158.52;;;;;26.60;1.00;;;;;;2279575;61;1700;-84
2021/09/24 07:02:31;303190.00;1.01;523.40;69137.00;0.23;120.27;;;;;26.90;1.00;;;;;;2279529;61;1253;-84
2021/09/24 07:04:59;201981.00;0.67;349.33;80279.00;0.27;139.52;;;;;26.80;1.00;;;;;;2279808;60;1425;-83
2021/09/24 07:07:27;344775.00;1.15;594.88;70949.00;0.24;123.40;;;;;26.60;1.00;;;;;;2279456;61;1588;-84
2021/09/24 07:09:56;228939.00;0.76;395.72;73635.00;0.25;128.04;;;;;26.70;1.00;;;;;;2279594;61;1642;-83
2021/09/24 07:12:23;183560.00;0.61;317.62;68655.00;0.23;119.44;;;;;25.90;1.00;;;;;;2279507;61;1273;-83
2021/09/24 07:14:50;222582.00;0.74;384.79;77321.00;0.26;134.41;;;;;25.90;1.00;;;;;;2279588;61;2018;-83
2021/09/24 07:17:16;198043.00;0.66;342.55;56094.00;0.19;97.72;;;;;26.10;1.00;;;;;;2279474;61;1220;-84
2021/09/24 07:19:43;53977.00;0.18;94.06;0.00;0.00;0.62;;;;;26.20;1.00;;;;;;2279571;61;1136;-84
2021/09/24 07:22:10;42397.00;0.14;74.04;0.00;0.00;0.62;;;;;26.00;1.00;;;;;;2279584;61;1259;-84
2021/09/24 07:24:39;26827.00;0.09;47.09;0.00;0.00;0.62;;;;;26.40;1.00;;;;;;2279496;61;1687;-88
2021/09/24 07:27:06;44295.00;0.15;77.32;0.00;0.00;0.62;;;;;26.40;1.00;;;;;;2278651;61;1161;-89
2021/09/24 07:29:33;33614.00;0.11;58.84;0.00;0.00;0.62;;;;;26.20;1.00;;;;;;2279809;61;1159;-89
2021/09/24 07:32:00;185857.00;0.62;321.58;0.00;0.00;0.62;;;;;25.90;1.00;;;;;;2279776;61;1301;-89
2021/09/24 07:34:27;53576.00;0.18;93.37;0.00;0.00;0.62;;;;;25.70;1.00;;;;;;2279803;61;1931;-89
2021/09/24 07:36:54;52516.00;0.18;91.54;0.00;0.00;0.62;;;;;25.90;1.00;;;;;;2279911;61;1016;-88
2021/09/24 07:39:21;198945.00;0.66;344.11;0.00;0.00;0.62;;;;;25.40;1.00;;;;;;2279891;61;1132;-89
2021/09/24 07:41:49;108459.00;0.36;188.17;0.00;0.00;0.62;;;;;25.80;1.00;;;;;;2279753;61;1354;-89
2021/09/24 07:44:16;122563.00;0.41;212.50;0.00;0.00;0.62;;;;;25.60;1.00;;;;;;2279496;61;1271;-88
2021/09/24 07:46:45;97731.00;0.33;169.66;0.00;0.00;0.62;;;;;25.80;1.00;;;;;;2279716;60;1125;-89
2021/09/24 07:49:11;35740.00;0.12;62.52;0.00;0.00;0.62;;;;;25.60;1.00;;;;;;2278768;61;1096;-89
2021/09/24 07:51:38;56126.00;0.19;97.78;0.00;0.00;0.62;;;;;25.90;1.00;;;;;;2278720;61;1368;-89
2021/09/24 07:54:05;90462.00;0.30;157.11;0.00;0.00;0.62;;;;;25.50;1.00;;;;;;2279328;61;1915;-89
2021/09/24 07:56:33;1673063.00;5.58;2973.20;181925.00;0.61;314.80;;;;;25.30;1.00;;;;;;2278452;61;1130;-89
2021/09/24 07:59:01;1487336.00;4.96;2619.31;242645.00;0.81;419.30;;;;;25.30;1.00;;;;;;2278175;61;1162;-89
2021/09/24 08:01:28;182062.00;0.61;315.04;73668.00;0.25;128.10;;;;;25.30;1.00;;;;;;2278130;61;1280;-88
2021/09/24 08:03:55;122522.00;0.41;212.43;0.00;0.00;0.62;;;;;25.30;1.00;;;;;;2278349;61;1139;-89
2021/09/24 08:06:22;57908.00;0.19;100.86;0.00;0.00;0.62;;;;;25.10;1.00;;;;;;2277954;61;1130;-89
2021/09/24 08:08:49;23088.00;0.08;40.62;0.00;0.00;0.62;;;;;25.30;1.00;;;;;;2278506;61;1150;-89
2021/09/24 08:11:17;203367.00;0.68;351.72;14806.00;0.05;26.27;;;;;25.60;1.00;;;;;;2278552;61;1280;-88
2021/09/24 08:13:44;59643.00;0.20;103.86;0.00;0.00;0.62;;;;;25.70;1.00;;;;;;2277062;61;2000;-88
2021/09/24 08:16:14;4705.00;0.02;8.77;0.00;0.00;0.62;;;;;26.00;1.00;;;;;;2276010;61;1160;-88
2021/09/24 08:18:41;0.00;0.00;0.62;0.00;0.00;0.62;;;;;26.20;1.00;;;;;;2278138;61;1762;-88
2021/09/24 08:21:08;392458.00;1.31;676.84;75262.00;0.25;130.85;;;;;25.90;1.00;;;;;;2276807;61;1187;-89
2021/09/24 08:23:37;41427.00;0.14;72.36;0.00;0.00;0.62;;;;;25.70;1.00;;;;;;2275091;61;1372;-86
2021/09/24 08:26:05;64876.00;0.22;112.91;0.00;0.00;0.62;;;;;25.10;1.00;;;;;;2273710;61;1841;-86
2021/09/24 08:28:32;23310.00;0.08;41.00;0.00;0.00;0.62;;;;;25.10;1.00;;;;;;2273438;61;1085;-86
2021/09/24 08:30:59;131707.00;0.44;228.27;0.00;0.00;0.62;;;;;25.20;1.00;;;;;;2275221;61;1153;-86
2021/09/24 08:33:27;141053.00;0.47;244.39;0.00;0.00;0.62;;;;;25.40;1.00;;;;;;2279192;61;2014;-87
2021/09/24 08:35:55;185502.00;0.62;320.96;0.00;0.00;0.62;;;;;25.70;1.00;;;;;;2278811;61;1152;-86
2021/09/24 08:38:22;149698.00;0.50;259.29;0.00;0.00;0.62;;;;;26.00;1.00;;;;;;2275142;61;1120;-86
2021/09/24 08:40:49;47776.00;0.16;83.34;0.00;0.00;0.62;;;;;26.10;1.00;;;;;;2274075;61;1149;-87
2021/09/24 08:43:16;207547.00;0.69;358.91;14225.00;0.05;25.27;;;;;25.80;1.00;;;;;;2274697;61;1371;-86
2021/09/24 08:45:46;98046.00;0.33;170.20;0.00;0.00;0.62;;;;;25.20;1.00;;;;;;2275431;61;1176;-86
2021/09/24 08:48:14;20707.00;0.07;36.49;0.00;0.00;0.62;;;;;24.90;1.00;;;;;;2275171;61;1120;-86
2021/09/24 08:50:44;90302.00;0.30;156.83;0.00;0.00;0.62;;;;;24.70;1.00;;;;;;2276019;61;1089;-86
2021/09/24 08:53:14;152465.00;0.51;264.06;0.00;0.00;0.62;;;;;24.70;1.00;;;;;;2274945;61;1424;-86
2021/09/24 08:55:44;116494.00;0.39;202.03;0.00;0.00;0.62;;;;;24.70;1.00;;;;;;2274982;61;2048;-87
2021/09/24 08:58:12;94002.00;0.31;163.22;0.00;0.00;0.62;;;;;24.80;1.00;;;;;;2275077;61;1099;-86
2021/09/24 09:00:42;138149.00;0.46;239.38;0.00;0.00;0.62;;;;;24.80;1.00;;;;;;2274167;61;1651;-86
2021/09/24 09:03:13;73864.00;0.25;128.44;0.00;0.00;0.62;;;;;24.90;1.00;;;;;;2274542;61;1383;-86
2021/09/24 09:05:43;171919.00;0.57;297.57;38219.00;0.13;66.81;;;;;25.00;1.00;;;;;;2275355;61;1138;-86
2021/09/24 09:08:14;89382.00;0.30;155.24;0.00;0.00;0.62;;;;;24.70;1.00;;;;;;2274449;61;1164;-86
2021/09/24 09:10:44;107970.00;0.36;187.33;28562.00;0.10;50.09;;;;;24.70;1.00;;;;;;2275188;61;1135;-86
2021/09/24 09:13:14;277350.00;0.92;478.98;72395.00;0.24;125.90;;;;;24.70;1.00;;;;;;2275400;61;1359;-87
2021/09/24 09:15:51;115986.00;0.39;201.16;0.00;0.00;0.62;;;;;24.70;1.00;;;;;;2274633;61;2007;-85
2021/09/24 09:18:19;79319.00;0.26;137.86;0.00;0.00;0.62;;;;;24.60;1.00;;;;;;2273980;61;1190;-86
2021/09/24 09:20:49;184405.00;0.61;319.08;0.00;0.00;0.62;;;;;24.40;1.00;;;;;;2274630;61;1140;-86
2021/09/24 09:23:19;114733.00;0.38;199.00;0.00;0.00;0.62;;;;;24.60;1.00;;;;;;2274381;61;1445;-86
2021/09/24 09:25:49;180061.00;0.60;311.59;0.00;0.00;0.62;;;;;24.80;1.00;;;;;;2274849;61;1026;-86
2021/09/24 09:28:25;171596.00;0.57;297.02;0.00;0.00;0.62;;;;;24.70;1.00;;;;;;2274863;61;1837;-86
2021/09/24 09:30:51;85640.00;0.29;148.78;0.00;0.00;0.62;;;;;24.80;1.00;;;;;;2280004;61;1187;-86
2021/09/24 09:33:20;141020.00;0.47;244.33;0.00;0.00;0.62;;;;;24.70;1.00;;;;;;2274833;61;1363;-86
2021/09/24 09:35:52;54835.00;0.18;95.55;0.00;0.00;0.62;;;;;24.70;1.00;;;;;;2273979;61;2022;-86
2021/09/24 09:38:23;30961.00;0.10;54.25;0.00;0.00;0.62;;;;;24.80;1.00;;;;;;2274268;61;1168;-86